createdAt,value
2022-12-01T00:08:20.805Z,16.9
2022-12-01T00:38:38.337Z,16
2022-12-01T01:08:56.571Z,14.5
2022-12-01T01:39:14.409Z,14.2
2022-12-01T02:09:32.256Z,16.4
2022-12-01T02:39:50.375Z,14.4
2022-12-01T03:10:08.531Z,14.6
2022-12-01T03:40:26.420Z,15.3
2022-12-01T04:10:44.304Z,15.9
2022-12-01T04:41:01.666Z,17.7
2022-12-01T05:11:26.318Z,15.6
2022-12-01T05:41:44.292Z,14.8
2022-12-01T06:12:01.567Z,17
2022-12-01T06:42:22.206Z,14.5
2022-12-01T07:12:40.777Z,17.2
2022-12-01T07:42:59.389Z,18.2
2022-12-01T08:13:17.716Z,18
2022-12-01T08:43:57.802Z,16.3
2022-12-01T09:13:57.524Z,11.7
2022-12-01T09:44:16.592Z,12.3
2022-12-01T10:14:36.316Z,12.4
2022-12-01T10:44:55.034Z,10
2022-12-01T11:15:13.144Z,12.5
2022-12-01T11:45:32.443Z,12.7
2022-12-01T12:15:50.766Z,13.3
2022-12-01T12:46:07.784Z,11.1
2022-12-01T13:16:30.452Z,11
2022-12-01T13:46:49.844Z,13.7
2022-12-01T14:17:07.271Z,11.4
2022-12-01T14:47:25.691Z,10.2
2022-12-01T15:17:43.961Z,9.7
2022-12-01T15:48:01.500Z,12.7
2022-12-01T16:18:19.945Z,11.8
2022-12-01T16:48:36.858Z,11.1
2022-12-01T17:18:53.283Z,11.2
2022-12-01T17:49:11.513Z,12.1
2022-12-01T18:19:28.591Z,11.9
2022-12-01T18:49:46.401Z,14.2
2022-12-01T19:20:04.624Z,15.7
2022-12-01T19:50:24.122Z,16.4
2022-12-01T20:20:42.041Z,13.8
2022-12-01T20:51:01.164Z,16.9
2022-12-01T21:21:21.003Z,18.3
2022-12-01T21:51:38.892Z,15.8
2022-12-01T22:21:57.404Z,14.7
2022-12-01T22:52:15.270Z,15.7
2022-12-01T23:22:33.282Z,16.4
2022-12-01T23:52:50.930Z,13.6
